Time,TemperatureF,DewpointF,PressureIn,WindDirection,WindDirectionDegrees,WindSpeedMPH,WindSpeedGustMPH,Humidity,HourlyPrecipIn,Conditions,Clouds,dailyrainin,SoftwareType,DateUTC
2013-03-20 00:23:00,60.0,29.0,-100.00,NNW,340,3.0,-999.0,31,0.00,,,-99.99,,2013-03-20 04:23:00,
2013-03-20 00:32:00,60.0,29.0,-100.00,NNW,340,3.0,-999.0,31,0.00,,,-99.99,,2013-03-20 04:32:00,
2013-03-20 00:43:00,60.0,29.0,-100.00,NNW,340,3.0,-999.0,31,0.00,,,-99.99,,2013-03-20 04:43:00,
2013-03-20 01:23:00,59.0,29.0,-100.00,North,349,4.0,-999.0,32,0.00,,,-99.99,,2013-03-20 05:23:00,
2013-03-20 01:32:00,59.0,29.0,-100.00,North,349,4.0,-999.0,32,0.00,,,-99.99,,2013-03-20 05:32:00,
2013-03-20 01:42:00,59.0,29.0,-100.00,North,349,4.0,-999.0,32,0.00,,,-99.99,,2013-03-20 05:42:00,
2013-03-20 02:22:00,58.0,29.0,-100.00,North,354,3.0,-999.0,34,0.00,,,-99.99,,2013-03-20 06:22:00,
2013-03-20 02:32:00,58.0,29.0,-100.00,North,354,3.0,-999.0,34,0.00,,,-99.99,,2013-03-20 06:32:00,
2013-03-20 02:43:00,58.0,29.0,-100.00,North,354,3.0,-999.0,34,0.00,,,-99.99,,2013-03-20 06:43:00,
2013-03-20 03:22:00,56.0,31.0,-100.00,North,10,3.0,-999.0,39,0.00,,,-99.99,,2013-03-20 07:22:00,
2013-03-20 03:32:00,56.0,31.0,-100.00,North,10,3.0,-999.0,39,0.00,,,-99.99,,2013-03-20 07:32:00,
2013-03-20 03:42:00,56.0,31.0,-100.00,North,10,3.0,-999.0,39,0.00,,,-99.99,,2013-03-20 07:42:00,
2013-03-20 04:22:00,55.0,31.0,-100.00,NNE,13,5.0,-999.0,40,0.00,,,-99.99,,2013-03-20 08:22:00,
2013-03-20 04:32:00,55.0,31.0,-100.00,NNE,13,5.0,-999.0,40,0.00,,,-99.99,,2013-03-20 08:32:00,
2013-03-20 04:42:00,55.0,31.0,-100.00,NNE,13,5.0,-999.0,40,0.00,,,-99.99,,2013-03-20 08:42:00,
2013-03-20 05:22:00,52.0,34.0,-100.00,NNE,23,4.0,-999.0,50,0.00,,,-99.99,,2013-03-20 09:22:00,
2013-03-20 05:33:00,52.0,34.0,-100.00,NNE,23,4.0,-999.0,50,0.00,,,-99.99,,2013-03-20 09:33:00,
2013-03-20 05:43:00,52.0,34.0,-100.00,NNE,23,4.0,-999.0,50,0.00,,,-99.99,,2013-03-20 09:43:00,
2013-03-20 06:23:00,50.0,33.0,-100.00,NNE,19,3.0,-999.0,52,0.00,,,-99.99,,2013-03-20 10:23:00,
2013-03-20 06:33:00,50.0,33.0,-100.00,NNE,19,3.0,-999.0,52,0.00,,,-99.99,,2013-03-20 10:33:00,
2013-03-20 06:43:00,50.0,33.0,-100.00,NNE,19,3.0,-999.0,52,0.00,,,-99.99,,2013-03-20 10:43:00,
2013-03-20 07:22:00,48.0,34.0,-100.00,NNE,19,3.0,-999.0,57,0.00,,,-99.99,,2013-03-20 11:22:00,
2013-03-20 07:32:00,48.0,34.0,-100.00,NNE,19,3.0,-999.0,57,0.00,,,-99.99,,2013-03-20 11:32:00,
2013-03-20 07:42:00,48.0,34.0,-100.00,NNE,19,3.0,-999.0,57,0.00,,,-99.99,,2013-03-20 11:42:00,
2013-03-20 08:22:00,48.0,32.0,-100.00,NNE,19,3.0,-999.0,53,0.00,,,-99.99,,2013-03-20 12:22:00,
2013-03-20 08:33:00,48.0,32.0,-100.00,NNE,19,3.0,-999.0,53,0.00,,,-99.99,,2013-03-20 12:33:00,
2013-03-20 08:42:00,48.0,32.0,-100.00,NNE,19,3.0,-999.0,53,0.00,,,-99.99,,2013-03-20 12:42:00,
2013-03-20 09:22:00,50.0,31.0,-100.00,NNE,18,4.0,-999.0,47,0.00,,,-99.99,,2013-03-20 13:22:00,
2013-03-20 09:32:00,50.0,31.0,-100.00,NNE,18,4.0,-999.0,47,0.00,,,-99.99,,2013-03-20 13:32:00,
2013-03-20 09:42:00,50.0,31.0,-100.00,NNE,18,4.0,-999.0,47,0.00,,,-99.99,,2013-03-20 13:42:00,
2013-03-20 10:23:00,55.0,25.0,-100.00,NE,41,7.0,-999.0,32,0.00,,,-99.99,,2013-03-20 14:23:00,
2013-03-20 10:34:00,55.0,25.0,-100.00,NE,41,7.0,-999.0,32,0.00,,,-99.99,,2013-03-20 14:34:00,
2013-03-20 10:42:00,55.0,25.0,-100.00,NE,41,7.0,-999.0,32,0.00,,,-99.99,,2013-03-20 14:42:00,
2013-03-20 11:22:00,57.0,20.0,-100.00,NE,38,7.0,-999.0,24,0.00,,,-99.99,,2013-03-20 15:22:00,
2013-03-20 11:33:00,57.0,20.0,-100.00,NE,38,7.0,-999.0,24,0.00,,,-99.99,,2013-03-20 15:33:00,
2013-03-20 11:43:00,57.0,20.0,-100.00,NE,38,7.0,-999.0,24,0.00,,,-99.99,,2013-03-20 15:43:00,
2013-03-20 12:23:00,59.0,18.0,-100.00,NE,50,6.0,-999.0,20,0.00,,,-99.99,,2013-03-20 16:23:00,
2013-03-20 12:33:00,59.0,18.0,-100.00,NE,50,6.0,-999.0,20,0.00,,,-99.99,,2013-03-20 16:33:00,
2013-03-20 12:43:00,59.0,18.0,-100.00,NE,50,6.0,-999.0,20,0.00,,,-99.99,,2013-03-20 16:43:00,
2013-03-20 13:22:00,61.0,22.0,-100.00,ENE,66,4.0,-999.0,22,0.00,,,-99.99,,2013-03-20 17:22:00,
2013-03-20 13:32:00,61.0,22.0,-100.00,ENE,66,4.0,-999.0,22,0.00,,,-99.99,,2013-03-20 17:32:00,
2013-03-20 13:42:00,61.0,22.0,-100.00,ENE,66,4.0,-999.0,22,0.00,,,-99.99,,2013-03-20 17:42:00,
2013-03-20 14:22:00,63.0,21.0,-100.00,NE,43,4.0,-999.0,20,0.00,,,-99.99,,2013-03-20 18:22:00,
2013-03-20 14:34:00,63.0,21.0,-100.00,NE,43,4.0,-999.0,20,0.00,,,-99.99,,2013-03-20 18:34:00,
2013-03-20 14:43:00,63.0,21.0,-100.00,NE,43,4.0,-999.0,20,0.00,,,-99.99,,2013-03-20 18:43:00,
2013-03-20 15:23:00,65.0,23.0,-100.00,NNE,26,3.0,-999.0,20,0.00,,,-99.99,,2013-03-20 19:23:00,
2013-03-20 15:32:00,65.0,23.0,-100.00,NNE,26,3.0,-999.0,20,0.00,,,-99.99,,2013-03-20 19:32:00,
2013-03-20 15:42:00,65.0,23.0,-100.00,NNE,26,3.0,-999.0,20,0.00,,,-99.99,,2013-03-20 19:42:00,
2013-03-20 16:23:00,62.0,39.0,-100.00,ESE,108,7.0,-999.0,43,0.00,,,-99.99,,2013-03-20 20:23:00,
2013-03-20 16:32:00,62.0,39.0,-100.00,ESE,108,7.0,-999.0,43,0.00,,,-99.99,,2013-03-20 20:32:00,
2013-03-20 16:42:00,62.0,39.0,-100.00,ESE,108,7.0,-999.0,43,0.00,,,-99.99,,2013-03-20 20:42:00,
2013-03-20 17:23:00,59.0,40.0,-100.00,ESE,115,6.0,-999.0,49,0.00,,,-99.99,,2013-03-20 21:23:00,
2013-03-20 17:33:00,59.0,40.0,-100.00,ESE,115,6.0,-999.0,49,0.00,,,-99.99,,2013-03-20 21:33:00,
2013-03-20 17:42:00,59.0,40.0,-100.00,ESE,115,6.0,-999.0,49,0.00,,,-99.99,,2013-03-20 21:42:00,
2013-03-20 18:23:00,56.0,38.0,-100.00,ESE,105,5.0,-999.0,52,0.00,,,-99.99,,2013-03-20 22:23:00,
2013-03-20 18:33:00,56.0,38.0,-100.00,ESE,105,5.0,-999.0,52,0.00,,,-99.99,,2013-03-20 22:33:00,
2013-03-20 18:42:00,56.0,38.0,-100.00,ESE,105,5.0,-999.0,52,0.00,,,-99.99,,2013-03-20 22:42:00,
2013-03-20 19:23:00,55.0,37.0,-100.00,East,91,3.0,-999.0,51,0.00,,,-99.99,,2013-03-20 23:23:00,
2013-03-20 19:33:00,55.0,37.0,-100.00,East,91,3.0,-999.0,51,0.00,,,-99.99,,2013-03-20 23:33:00,
2013-03-20 19:43:00,55.0,37.0,-100.00,East,91,3.0,-999.0,51,0.00,,,-99.99,,2013-03-20 23:43:00,
2013-03-20 20:23:00,52.0,39.0,-100.00,East,83,0.0,-999.0,61,0.00,,,-99.99,,2013-03-21 00:23:00,
2013-03-20 20:33:00,52.0,39.0,-100.00,East,83,0.0,-999.0,61,0.00,,,-99.99,,2013-03-21 00:33:00,
2013-03-20 20:42:00,52.0,39.0,-100.00,East,83,0.0,-999.0,61,0.00,,,-99.99,,2013-03-21 00:42:00,
2013-03-20 21:22:00,51.0,42.0,-100.00,SSE,164,0.0,-999.0,71,0.00,,,-99.99,,2013-03-21 01:22:00,
2013-03-20 21:33:00,51.0,42.0,-100.00,SSE,164,0.0,-999.0,71,0.00,,,-99.99,,2013-03-21 01:33:00,
2013-03-20 21:42:00,51.0,42.0,-100.00,SSE,164,0.0,-999.0,71,0.00,,,-99.99,,2013-03-21 01:42:00,
2013-03-20 22:23:00,47.0,42.0,-100.00,NW,311,1.0,-999.0,83,0.00,,,-99.99,,2013-03-21 02:23:00,
2013-03-20 22:33:00,47.0,42.0,-100.00,NW,311,1.0,-999.0,83,0.00,,,-99.99,,2013-03-21 02:33:00,
2013-03-20 22:42:00,47.0,42.0,-100.00,NW,311,1.0,-999.0,83,0.00,,,-99.99,,2013-03-21 02:42:00,
2013-03-20 23:22:00,45.0,41.0,-100.00,West,266,1.0,-999.0,84,0.00,,,-99.99,,2013-03-21 03:22:00,
2013-03-20 23:33:00,45.0,41.0,-100.00,West,266,1.0,-999.0,84,0.00,,,-99.99,,2013-03-21 03:33:00,
2013-03-20 23:43:00,45.0,41.0,-100.00,West,266,1.0,-999.0,84,0.00,,,-99.99,,2013-03-21 03:43:00,